Time;durP1;ratioP1;P1;durP2;ratioP2;P2;SDS_P1;SDS_P2;PMS_P1;PMS_P2;Temp;Humidity;BMP_temperature;BMP_pressure;BME280_temperature;BME280_humidity;BME280_pressure;Samples;Min_cycle;Max_cycle;Signal;HPM_P1;HPM_P2
2023/07/23 00:00:29;;;;;;;0.10;0.10;;;;;;;18.47;82.61;99282.47;7349766;19;20082;-59
2023/07/23 00:02:55;;;;;;;0.10;0.10;;;;;;;18.43;82.74;99279.22;7345154;19;20014;-59
2023/07/23 00:05:23;;;;;;;0.00;0.00;;;;;;;18.40;83.21;99280.31;7352745;19;20033;-60
2023/07/23 00:07:49;;;;;;;0.00;0.00;;;;;;;18.40;83.02;99288.25;7344207;19;20014;-59
2023/07/23 00:10:14;;;;;;;0.00;0.00;;;;;;;18.37;83.37;99275.25;7344778;19;20010;-58
2023/07/23 00:12:40;;;;;;;0.10;0.10;;;;;;;18.38;83.67;99276.94;7348066;19;20503;-59
2023/07/23 00:15:05;;;;;;;0.10;0.10;;;;;;;18.36;83.65;99270.09;7346163;19;20014;-60
2023/07/23 00:17:31;;;;;;;0.00;0.00;;;;;;;18.35;83.62;99274.56;7351624;19;20039;-59
2023/07/23 00:19:56;;;;;;;0.08;0.08;;;;;;;18.30;83.90;99268.78;7327281;19;20994;-60
2023/07/23 00:22:22;;;;;;;0.10;0.10;;;;;;;18.33;83.53;99276.44;7329267;19;20086;-60
2023/07/23 00:24:48;;;;;;;0.10;0.10;;;;;;;18.34;83.04;99279.94;7328832;19;20957;-60
2023/07/23 00:27:16;;;;;;;0.10;0.10;;;;;;;18.26;83.43;99264.69;7341966;19;20014;-59
2023/07/23 00:29:41;;;;;;;0.00;0.00;;;;;;;18.31;83.81;99278.38;7346954;19;20066;-59
2023/07/23 00:32:07;;;;;;;0.10;0.10;;;;;;;18.32;83.80;99279.22;7346634;19;20478;-59
2023/07/23 00:34:33;;;;;;;0.10;0.10;;;;;;;18.31;84.03;99273.09;7346528;19;20030;-59
2023/07/23 00:36:58;;;;;;;0.10;0.10;;;;;;;18.31;83.66;99273.09;7345836;19;20007;-59
2023/07/23 00:39:24;;;;;;;0.10;0.10;;;;;;;18.31;83.42;99273.09;7350938;19;20010;-59
2023/07/23 00:41:50;;;;;;;0.03;0.03;;;;;;;18.31;83.16;99273.09;7348944;19;20031;-60
2023/07/23 00:44:16;;;;;;;0.10;0.10;;;;;;;18.30;83.36;99266.13;7350069;19;20571;-59
2023/07/23 00:46:42;;;;;;;0.10;0.10;;;;;;;18.31;83.28;99267.81;7350701;19;20018;-59
2023/07/23 00:49:07;;;;;;;0.10;0.10;;;;;;;18.30;83.39;99265.31;7348009;19;20010;-60
2023/07/23 00:51:33;;;;;;;0.00;0.00;;;;;;;18.31;83.16;99273.09;7346475;19;20463;-59
2023/07/23 00:53:59;;;;;;;0.10;0.10;;;;;;;18.28;83.47;99257.47;7349507;19;20006;-59
2023/07/23 00:56:25;;;;;;;0.10;0.10;;;;;;;18.29;83.46;99264.44;7350483;19;20015;-60
2023/07/23 00:58:51;;;;;;;0.10;0.10;;;;;;;18.28;83.02;99257.47;7349361;19;20014;-60
2023/07/23 01:01:17;;;;;;;0.10;0.10;;;;;;;18.27;82.84;99261.06;7343508;19;21101;-60
2023/07/23 01:03:42;;;;;;;0.10;0.10;;;;;;;18.27;82.84;99253.16;7350796;19;20879;-60
2023/07/23 01:06:11;;;;;;;0.10;0.10;;;;;;;18.26;83.23;99248.84;7344448;19;20014;-60
2023/07/23 01:08:39;;;;;;;0.03;0.03;;;;;;;18.25;83.06;99251.56;7342615;19;20282;-60
2023/07/23 01:11:05;;;;;;;0.10;0.10;;;;;;;18.23;82.69;99256.97;7351482;19;20018;-59
2023/07/23 01:13:31;;;;;;;0.10;0.10;;;;;;;18.21;83.25;99253.63;7351311;19;20051;-59
2023/07/23 01:15:57;;;;;;;0.10;0.10;;;;;;;18.15;83.20;99246.19;7352788;19;20642;-59
2023/07/23 01:18:23;;;;;;;0.10;0.10;;;;;;;18.12;83.24;99241.13;7354287;19;20014;-60
2023/07/23 01:20:49;;;;;;;0.10;0.10;;;;;;;18.18;82.94;99251.22;7358269;19;20089;-59
2023/07/23 01:23:14;;;;;;;0.10;0.10;;;;;;;18.17;83.15;99244.25;7355210;19;21466;-59
2023/07/23 01:25:40;;;;;;;0.10;0.10;;;;;;;18.16;82.84;99242.56;7352071;19;20049;-59
2023/07/23 01:28:05;;;;;;;0.10;0.10;;;;;;;18.09;82.71;99230.78;7354516;19;20018;-60
2023/07/23 01:30:31;;;;;;;0.10;0.10;;;;;;;18.14;82.91;99244.47;7353507;19;20011;-59
2023/07/23 01:32:57;;;;;;;0.00;0.00;;;;;;;18.15;82.28;99246.19;7356974;19;20014;-60
2023/07/23 01:35:24;;;;;;;0.10;0.10;;;;;;;18.13;82.37;99245.44;7354208;19;20474;-60
2023/07/23 01:37:50;;;;;;;0.10;0.10;;;;;;;18.13;82.58;99242.81;7356941;19;20018;-60
2023/07/23 01:40:16;;;;;;;0.10;0.10;;;;;;;18.11;82.63;99244.72;7356598;19;20982;-60
2023/07/23 01:42:44;;;;;;;0.10;0.10;;;;;;;18.13;82.64;99240.16;7354517;19;20020;-59
2023/07/23 01:45:12;;;;;;;0.00;0.00;;;;;;;18.10;82.30;99243.06;7354650;19;20502;-60
2023/07/23 01:47:37;;;;;;;0.10;0.10;;;;;;;18.07;82.41;99240.63;7354397;19;20006;-60
2023/07/23 01:50:03;;;;;;;0.10;0.10;;;;;;;18.07;82.29;99238.00;7355583;19;20010;-59
2023/07/23 01:52:29;;;;;;;0.10;0.10;;;;;;;18.06;82.22;99237.16;7353515;19;20018;-60
2023/07/23 01:54:54;;;;;;;0.10;0.10;;;;;;;18.05;81.96;99235.47;7354538;19;20006;-59
2023/07/23 01:57:20;;;;;;;0.10;0.10;;;;;;;18.06;82.39;99246.88;7343145;19;20010;-60
2023/07/23 01:59:47;;;;;;;0.00;0.00;;;;;;;18.04;82.95;99243.50;7354038;19;20047;-60
2023/07/23 02:02:12;;;;;;;0.10;0.10;;;;;;;18.04;82.47;99239.06;7356672;19;20010;-59
2023/07/23 02:04:38;;;;;;;0.10;0.10;;;;;;;18.05;82.65;99234.66;7349552;19;20754;-59
2023/07/23 02:07:03;;;;;;;0.10;0.10;;;;;;;18.05;82.30;99234.66;7361543;19;20023;-59
2023/07/23 02:09:29;;;;;;;0.10;0.10;;;;;;;18.04;82.48;99238.22;7355906;19;20355;-59
2023/07/23 02:11:54;;;;;;;0.10;0.10;;;;;;;18.04;82.44;99235.56;7362901;19;20015;-59
2023/07/23 02:14:20;;;;;;;0.10;0.10;;;;;;;18.04;82.43;99238.22;7351928;19;20478;-61
2023/07/23 02:16:45;;;;;;;0.03;0.03;;;;;;;18.03;82.36;99236.53;7356409;19;20021;-61
2023/07/23 02:19:12;;;;;;;0.10;0.10;;;;;;;18.03;81.80;99231.25;7356230;19;20057;-61
2023/07/23 02:21:38;;;;;;;0.10;0.10;;;;;;;18.01;81.93;99235.84;7361902;19;20014;-59
2023/07/23 02:24:04;;;;;;;0.10;0.10;;;;;;;18.01;81.92;99225.28;7360024;19;20028;-61
2023/07/23 02:26:30;;;;;;;0.10;0.10;;;;;;;17.97;82.16;99221.16;7357817;19;20010;-61
2023/07/23 02:28:55;;;;;;;0.10;0.10;;;;;;;17.97;82.38;99227.28;7358154;19;20034;-61
2023/07/23 02:31:21;;;;;;;0.03;0.03;;;;;;;17.95;82.30;99226.59;7302408;19;20861;-61
2023/07/23 02:33:46;;;;;;;0.10;0.10;;;;;;;17.96;82.10;99224.78;7347254;19;20013;-59
2023/07/23 02:36:12;;;;;;;0.10;0.10;;;;;;;17.97;82.17;99229.09;7340219;19;20024;-60
2023/07/23 02:38:37;;;;;;;0.10;0.10;;;;;;;17.96;82.44;99235.34;7352845;19;20006;-60
2023/07/23 02:41:03;;;;;;;0.10;0.10;;;;;;;17.94;82.30;99231.97;7359299;19;20010;-60
2023/07/23 02:43:29;;;;;;;0.10;0.10;;;;;;;17.92;82.41;99228.59;7355257;19;20023;-61
2023/07/23 02:45:54;;;;;;;0.00;0.00;;;;;;;17.93;81.79;99225.00;7357932;19;20044;-60
2023/07/23 02:48:19;;;;;;;0.10;0.10;;;;;;;17.89;82.03;99230.53;7356724;19;20031;-60
2023/07/23 02:50:45;;;;;;;0.10;0.10;;;;;;;17.88;82.32;99228.81;7355445;19;20567;-60
2023/07/23 02:53:10;;;;;;;0.00;0.00;;;;;;;17.86;82.16;99225.47;7357084;19;20010;-60
2023/07/23 02:55:36;;;;;;;0.10;0.10;;;;;;;17.73;82.46;99206.25;7358397;19;20022;-60
2023/07/23 02:58:03;;;;;;;0.10;0.10;;;;;;;17.84;82.38;99222.13;7359241;19;20010;-60
2023/07/23 03:00:30;;;;;;;0.10;0.10;;;;;;;17.86;82.58;99220.19;7355367;19;20031;-60
2023/07/23 03:02:55;;;;;;;0.10;0.10;;;;;;;17.85;82.36;99221.16;7361483;19;20791;-60
2023/07/23 03:05:20;;;;;;;0.10;0.10;;;;;;;17.85;82.56;99215.88;7348606;19;20047;-60
2023/07/23 03:07:46;;;;;;;0.10;0.10;;;;;;;17.83;82.74;99209.84;7360688;19;20410;-60
2023/07/23 03:10:12;;;;;;;0.10;0.10;;;;;;;17.76;82.33;99198.09;7359700;19;20014;-60
2023/07/23 03:12:37;;;;;;;0.00;0.00;;;;;;;17.85;82.14;99213.25;7352237;19;20014;-60
2023/07/23 03:15:03;;;;;;;0.10;0.10;;;;;;;17.81;82.45;99211.78;7355308;19;20002;-60
2023/07/23 03:17:29;;;;;;;0.10;0.10;;;;;;;17.84;82.52;99216.84;7349388;19;20463;-61
2023/07/23 03:19:54;;;;;;;0.10;0.10;;;;;;;17.84;82.56;99215.97;7343714;19;20709;-60
2023/07/23 03:22:20;;;;;;;0.10;0.10;;;;;;;17.82;82.67;99213.47;7359109;19;20580;-60
2023/07/23 03:24:45;;;;;;;0.10;0.10;;;;;;;17.84;82.45;99222.13;7357971;19;20026;-60
2023/07/23 03:27:11;;;;;;;0.10;0.10;;;;;;;17.83;82.07;99225.69;7355819;19;20006;-60
2023/07/23 03:29:37;;;;;;;0.10;0.10;;;;;;;17.83;82.60;99225.69;7358204;19;20635;-60
2023/07/23 03:32:02;;;;;;;0.10;0.10;;;;;;;17.83;82.79;99225.69;7355890;19;20824;-60
2023/07/23 03:34:28;;;;;;;0.10;0.10;;;;;;;17.83;82.60;99223.06;7353487;19;20030;-60
2023/07/23 03:36:53;;;;;;;0.10;0.10;;;;;;;17.84;82.95;99224.78;7361084;19;20681;-60
2023/07/23 03:39:19;;;;;;;0.10;0.10;;;;;;;17.84;83.01;99219.47;7356256;19;20037;-60
2023/07/23 03:41:45;;;;;;;0.10;0.10;;;;;;;17.86;82.49;99225.47;7360023;19;20018;-61
2023/07/23 03:44:11;;;;;;;0.10;0.10;;;;;;;17.73;82.42;99198.31;7358009;19;20442;-60
2023/07/23 03:46:43;;;;;;;0.08;0.08;;;;;;;17.91;82.36;99229.56;7358979;19;20006;-60
2023/07/23 03:49:09;;;;;;;0.10;0.10;;;;;;;17.88;82.45;99234.13;7358381;19;20010;-60
2023/07/23 03:51:34;;;;;;;0.10;0.10;;;;;;;17.89;82.66;99230.53;7356313;19;20564;-60
2023/07/23 03:53:59;;;;;;;0.00;0.00;;;;;;;17.89;82.51;99225.25;7356171;19;20021;-60
2023/07/23 03:56:25;;;;;;;0.10;0.10;;;;;;;17.91;82.71;99237.50;7353838;19;20010;-60
2023/07/23 03:58:50;;;;;;;0.05;0.05;;;;;;;17.91;82.44;99229.56;7359240;19;20010;-61
2023/07/23 04:01:15;;;;;;;0.00;0.00;;;;;;;17.90;82.77;99231.38;7356858;19;20017;-60
2023/07/23 04:03:41;;;;;;;0.10;0.10;;;;;;;17.91;82.52;99227.78;7355893;19;20652;-60
2023/07/23 04:06:06;;;;;;;0.10;0.10;;;;;;;17.91;82.80;99232.22;7344383;19;20018;-60
2023/07/23 04:08:32;;;;;;;0.10;0.10;;;;;;;17.92;82.20;99233.91;7357904;19;20029;-60
2023/07/23 04:10:57;;;;;;;0.10;0.10;;;;;;;17.92;82.26;99239.19;7358868;19;20013;-60
2023/07/23 04:13:23;;;;;;;0.00;0.00;;;;;;;17.88;82.48;99234.13;7360263;19;20133;-61
2023/07/23 04:15:48;;;;;;;0.10;0.10;;;;;;;17.90;82.41;99236.66;7358507;19;20009;-60
2023/07/23 04:18:14;;;;;;;0.10;0.10;;;;;;;17.89;82.23;99235.81;7357977;19;20026;-60
2023/07/23 04:20:40;;;;;;;0.00;0.00;;;;;;;17.89;82.28;99246.38;7357708;19;20014;-60
2023/07/23 04:23:05;;;;;;;0.10;0.10;;;;;;;17.89;82.66;99246.38;7356117;19;20031;-60
2023/07/23 04:25:31;;;;;;;0.03;0.03;;;;;;;17.89;82.26;99246.38;7358829;19;20017;-60
2023/07/23 04:27:56;;;;;;;0.10;0.10;;;;;;;17.86;82.47;99241.31;7357295;19;20014;-61
2023/07/23 04:30:23;;;;;;;0.10;0.10;;;;;;;17.86;82.34;99241.31;7358046;19;20002;-60
2023/07/23 04:32:48;;;;;;;0.10;0.10;;;;;;;17.81;82.24;99238.19;7358622;19;20030;-61
2023/07/23 04:35:14;;;;;;;0.10;0.10;;;;;;;17.87;82.69;99242.16;7351623;19;20625;-60
2023/07/23 04:37:39;;;;;;;0.03;0.03;;;;;;;17.86;82.19;99251.88;7358689;19;20014;-61
2023/07/23 04:40:05;;;;;;;0.10;0.10;;;;;;;17.85;82.02;99247.56;7353898;19;20482;-61
2023/07/23 04:42:31;;;;;;;0.10;0.10;;;;;;;17.85;82.21;99250.22;7357289;19;20014;-60
2023/07/23 04:44:56;;;;;;;0.10;0.10;;;;;;;17.85;81.89;99252.00;7356924;19;20010;-60
2023/07/23 04:47:21;;;;;;;0.10;0.10;;;;;;;17.82;82.31;99245.16;7353990;19;20118;-60
2023/07/23 04:49:47;;;;;;;0.10;0.10;;;;;;;17.81;82.33;99248.75;7347790;19;20037;-59
2023/07/23 04:52:12;;;;;;;0.10;0.10;;;;;;;17.81;82.42;99254.03;7358502;19;20057;-59
2023/07/23 04:54:38;;;;;;;0.10;0.10;;;;;;;17.80;82.59;99252.34;7352281;19;20027;-59
2023/07/23 04:57:03;;;;;;;0.10;0.10;;;;;;;17.80;82.58;99251.53;7356891;19;20010;-61
2023/07/23 04:59:28;;;;;;;0.10;0.10;;;;;;;17.80;82.45;99262.91;7355519;19;20011;-60
2023/07/23 05:01:54;;;;;;;0.10;0.10;;;;;;;17.80;82.30;99262.91;7348308;19;20014;-60
2023/07/23 05:04:19;;;;;;;0.10;0.10;;;;;;;17.81;82.29;99258.47;7355721;19;20015;-59
2023/07/23 05:06:45;;;;;;;0.10;0.10;;;;;;;17.82;82.67;99265.44;7358048;19;20696;-60
2023/07/23 05:09:10;;;;;;;0.10;0.10;;;;;;;17.80;82.40;99257.63;7357031;19;20022;-60
2023/07/23 05:11:35;;;;;;;0.10;0.10;;;;;;;17.83;82.31;99262.66;7355488;19;20010;-60
2023/07/23 05:14:01;;;;;;;0.10;0.10;;;;;;;17.82;82.39;99261.00;7357315;19;20034;-60
2023/07/23 05:16:26;;;;;;;0.10;0.10;;;;;;;17.83;82.50;99270.59;7354429;19;20754;-60
2023/07/23 05:18:52;;;;;;;0.10;0.10;;;;;;;17.83;82.16;99270.59;7353256;19;20014;-60
2023/07/23 05:21:17;;;;;;;0.10;0.10;;;;;;;17.82;82.72;99271.56;7350078;19;20363;-60
2023/07/23 05:23:43;;;;;;;0.10;0.10;;;;;;;17.85;82.51;99275.78;7355140;19;20116;-59
2023/07/23 05:26:09;;;;;;;0.10;0.10;;;;;;;17.84;82.66;99269.66;7354609;19;20010;-60
2023/07/23 05:28:34;;;;;;;0.10;0.10;;;;;;;17.84;82.46;99274.94;7347207;19;20006;-60
2023/07/23 05:30:59;;;;;;;0.10;0.10;;;;;;;17.85;82.20;99279.25;7357452;19;20002;-60
2023/07/23 05:33:25;;;;;;;0.10;0.10;;;;;;;17.86;82.30;99275.66;7344037;19;20357;-60
2023/07/23 05:35:52;;;;;;;0.10;0.10;;;;;;;17.86;82.53;99278.28;7356964;19;20105;-60
2023/07/23 05:38:17;;;;;;;0.10;0.10;;;;;;;17.87;82.49;99285.25;7338714;19;20429;-60
2023/07/23 05:40:42;;;;;;;0.10;0.10;;;;;;;17.89;82.50;99286.00;7354971;19;20010;-60
2023/07/23 05:43:13;;;;;;;0.10;0.10;;;;;;;17.86;82.74;99262.44;7351976;19;20011;-60
2023/07/23 05:45:38;;;;;;;0.03;0.03;;;;;;;17.92;82.65;99286.72;7353759;19;20490;-60
2023/07/23 05:48:04;;;;;;;0.10;0.10;;;;;;;17.94;82.86;99284.78;7357251;19;20094;-60
2023/07/23 05:50:30;;;;;;;0.05;0.05;;;;;;;17.95;82.60;99286.50;7350794;19;21081;-60
2023/07/23 05:52:55;;;;;;;0.10;0.10;;;;;;;17.95;82.61;99287.34;7356301;19;20387;-60
2023/07/23 05:55:21;;;;;;;0.10;0.10;;;;;;;17.98;82.81;99287.09;7351119;19;20921;-60
2023/07/23 05:57:46;;;;;;;0.10;0.10;;;;;;;18.00;82.29;99294.91;7348771;19;20015;-60
2023/07/23 06:00:12;;;;;;;0.10;0.10;;;;;;;17.95;82.66;99282.06;7353496;19;20034;-60
2023/07/23 06:02:37;;;;;;;0.10;0.10;;;;;;;18.01;82.22;99301.88;7353675;19;20017;-60
2023/07/23 06:05:03;;;;;;;0.03;0.03;;;;;;;18.01;82.49;99299.22;7355486;19;20102;-60
2023/07/23 06:07:28;;;;;;;0.00;0.00;;;;;;;18.03;82.51;99302.59;7352807;19;20018;-60
2023/07/23 06:09:54;;;;;;;0.10;0.10;;;;;;;18.03;82.33;99302.59;7354786;19;20811;-61
2023/07/23 06:12:19;;;;;;;0.10;0.10;;;;;;;17.94;82.34;99284.78;7344334;19;20014;-60
2023/07/23 06:14:45;;;;;;;0.10;0.10;;;;;;;18.04;82.51;99306.91;7350266;19;20117;-60
2023/07/23 06:17:10;;;;;;;0.10;0.10;;;;;;;18.05;82.87;99308.59;7354312;19;20027;-60
2023/07/23 06:19:36;;;;;;;0.10;0.10;;;;;;;18.05;82.59;99313.91;7349520;19;20620;-60
2023/07/23 06:22:01;;;;;;;0.10;0.10;;;;;;;18.07;82.41;99311.97;7349329;19;20478;-60
2023/07/23 06:24:27;;;;;;;0.10;0.10;;;;;;;18.07;82.82;99315.44;7351888;19;20030;-59
2023/07/23 06:26:52;;;;;;;0.10;0.10;;;;;;;18.09;82.76;99307.41;7349662;19;21183;-60
2023/07/23 06:29:17;;;;;;;0.10;0.10;;;;;;;18.10;82.39;99312.59;7349093;19;20051;-60
2023/07/23 06:31:43;;;;;;;0.10;0.10;;;;;;;18.12;82.48;99309.81;7353950;19;20374;-60
2023/07/23 06:34:09;;;;;;;0.10;0.10;;;;;;;18.13;82.43;99327.34;7350127;19;20006;-60
2023/07/23 06:36:34;;;;;;;0.10;0.10;;;;;;;18.15;82.67;99320.16;7352965;19;20006;-60
2023/07/23 06:39:00;;;;;;;0.10;0.10;;;;;;;18.12;82.39;99315.09;7344737;19;20822;-60
2023/07/23 06:41:27;;;;;;;0.10;0.10;;;;;;;18.21;82.77;99329.41;7352460;19;20015;-60
2023/07/23 06:43:53;;;;;;;0.10;0.10;;;;;;;18.24;82.35;99330.00;7350982;19;20026;-60
2023/07/23 06:46:20;;;;;;;0.10;0.10;;;;;;;18.26;82.59;99336.03;7354221;19;20013;-60
2023/07/23 06:48:46;;;;;;;0.10;0.10;;;;;;;18.29;82.57;99332.31;7350253;19;20010;-60
2023/07/23 06:51:11;;;;;;;0.00;0.00;;;;;;;18.32;82.30;99332.91;7356585;19;20017;-61
2023/07/23 06:53:36;;;;;;;0.10;0.10;;;;;;;18.32;82.62;99332.91;7357939;19;20061;-60
2023/07/23 06:56:06;;;;;;;0.10;0.10;;;;;;;18.44;82.23;99338.22;7358042;19;20133;-60
2023/07/23 06:58:38;;;;;;;0.10;0.10;;;;;;;18.47;82.67;99345.91;7345718;19;21079;-64
2023/07/23 07:01:06;;;;;;;0.00;0.00;;;;;;;18.49;82.66;99344.00;7347069;19;20006;-64
2023/07/23 07:03:31;;;;;;;0.10;0.10;;;;;;;18.40;82.28;99319.97;7344825;19;21428;-65
2023/07/23 07:05:58;;;;;;;0.10;0.10;;;;;;;18.54;82.34;99342.66;7359396;19;20018;-64
2023/07/23 07:08:25;;;;;;;0.10;0.10;;;;;;;18.54;82.51;99341.84;7357811;19;20044;-64
2023/07/23 07:11:02;;;;;;;0.10;0.10;;;;;;;18.63;82.29;99357.81;7359095;19;20014;-64
2023/07/23 07:13:29;;;;;;;0.10;0.10;;;;;;;18.63;81.86;99357.81;7348522;19;20044;-65
2023/07/23 07:15:54;;;;;;;0.10;0.10;;;;;;;18.66;81.89;99377.91;7357842;19;20146;-63
2023/07/23 07:18:20;;;;;;;0.08;0.08;;;;;;;18.69;81.81;99388.28;7353796;19;20412;-65
2023/07/23 07:20:57;;;;;;;0.00;0.00;;;;;;;18.73;81.76;99389.72;7354008;19;20841;-64
2023/07/23 07:23:23;;;;;;;0.00;0.00;;;;;;;18.71;81.61;99391.66;7359996;19;20031;-65
2023/07/23 07:25:48;;;;;;;0.10;0.10;;;;;;;18.71;81.96;99391.66;7360302;19;20018;-66
2023/07/23 07:28:14;;;;;;;0.10;0.10;;;;;;;18.71;82.04;99396.94;7354157;19;20561;-65
2023/07/23 07:30:40;;;;;;;0.10;0.10;;;;;;;18.72;81.90;99382.75;7356551;19;20015;-64
2023/07/23 07:33:05;;;;;;;0.10;0.10;;;;;;;18.72;81.84;99397.78;7354991;19;20027;-64
2023/07/23 07:35:31;;;;;;;0.10;0.10;;;;;;;18.69;81.97;99392.72;7349418;19;20033;-64
2023/07/23 07:37:56;;;;;;;0.10;0.10;;;;;;;18.74;82.07;99401.97;7355734;19;20014;-65
2023/07/23 07:40:22;;;;;;;0.10;0.10;;;;;;;18.75;81.63;99402.81;7358015;19;20018;-65
2023/07/23 07:42:47;;;;;;;0.00;0.00;;;;;;;18.76;81.62;99408.00;7358510;19;20017;-64
2023/07/23 07:45:12;;;;;;;0.10;0.10;;;;;;;18.77;81.78;99412.34;7356413;19;20038;-64
2023/07/23 07:47:38;;;;;;;0.10;0.10;;;;;;;18.77;82.05;99412.34;7358869;19;20010;-64
2023/07/23 07:50:06;;;;;;;0.10;0.10;;;;;;;18.68;81.72;99386.59;7355980;19;20045;-64
2023/07/23 07:52:32;;;;;;;0.10;0.10;;;;;;;18.79;81.88;99409.56;7361996;19;20490;-64
2023/07/23 07:54:59;;;;;;;0.10;0.10;;;;;;;18.82;81.79;99417.28;7353139;19;20014;-65
2023/07/23 07:57:25;;;;;;;0.10;0.10;;;;;;;18.82;81.63;99410.19;7356319;19;20034;-65
2023/07/23 07:59:51;;;;;;;0.10;0.10;;;;;;;18.85;81.98;99419.66;7355235;19;20042;-65
2023/07/23 08:02:16;;;;;;;0.10;0.10;;;;;;;18.86;81.95;99406.34;7352717;19;20023;-64
2023/07/23 08:04:42;;;;;;;0.10;0.10;;;;;;;18.89;81.80;99411.38;7358047;19;20041;-64
2023/07/23 08:07:08;;;;;;;0.10;0.10;;;;;;;18.57;81.42;99354.81;7354440;19;20494;-65
2023/07/23 08:09:34;;;;;;;0.10;0.10;;;;;;;18.95;81.73;99419.78;7355997;19;20387;-65
2023/07/23 08:12:01;;;;;;;0.10;0.10;;;;;;;18.93;81.83;99412.81;7354755;19;20102;-64
2023/07/23 08:14:27;;;;;;;0.10;0.10;;;;;;;18.99;81.36;99422.09;7356414;19;20015;-65
2023/07/23 08:16:54;;;;;;;0.00;0.00;;;;;;;19.01;81.79;99428.13;7357210;19;20379;-64
2023/07/23 08:19:20;;;;;;;0.10;0.10;;;;;;;19.04;81.75;99427.84;7339773;19;20078;-65
2023/07/23 08:21:45;;;;;;;0.10;0.10;;;;;;;19.07;81.76;99432.09;7340514;19;20477;-64
2023/07/23 08:24:12;;;;;;;0.10;0.10;;;;;;;19.10;81.27;99439.75;7353055;19;20006;-65
2023/07/23 08:26:40;;;;;;;0.10;0.10;;;;;;;19.13;81.62;99434.25;7350872;19;20042;-64
2023/07/23 08:29:08;;;;;;;0.15;0.15;;;;;;;19.15;81.11;99437.59;7354577;19;20046;-64
2023/07/23 08:31:34;;;;;;;0.10;0.10;;;;;;;19.14;81.12;99441.22;7355897;19;20023;-65
2023/07/23 08:34:05;;;;;;;0.10;0.10;;;;;;;19.10;81.72;99429.19;7356658;19;19998;-65
2023/07/23 08:36:32;;;;;;;0.10;0.10;;;;;;;19.16;81.52;99449.91;7354032;19;20122;-64
2023/07/23 08:38:57;;;;;;;0.10;0.10;;;;;;;19.16;81.17;99444.59;7352062;19;20066;-65
2023/07/23 08:41:37;;;;;;;0.00;0.00;;;;;;;19.22;81.45;99448.56;7355009;19;20614;-65
2023/07/23 08:44:39;;;;;;;0.10;0.10;;;;;;;19.22;81.17;99446.75;7353513;19;20011;-65
2023/07/23 08:47:07;;;;;;;0.17;0.17;;;;;;;19.18;81.30;99454.09;7252565;19;2004238;-65
2023/07/23 08:49:33;;;;;;;0.10;0.10;;;;;;;19.20;81.24;99456.59;7353698;19;20754;-64
2023/07/23 08:51:59;;;;;;;0.00;0.00;;;;;;;19.19;80.89;99460.22;7353635;19;20028;-65
2023/07/23 08:54:25;;;;;;;0.00;0.00;;;;;;;19.19;81.35;99454.94;7355926;19;20070;-66
2023/07/23 08:56:51;;;;;;;0.10;0.10;;;;;;;19.18;80.98;99469.97;7352749;19;20019;-64
2023/07/23 08:59:18;;;;;;;0.10;0.10;;;;;;;19.19;81.37;99470.81;7354977;19;20010;-65
2023/07/23 09:01:44;;;;;;;0.00;0.00;;;;;;;19.16;81.07;99476.34;7351138;19;20007;-65
2023/07/23 09:04:13;;;;;;;0.10;0.10;;;;;;;19.18;81.26;99479.72;7352045;19;20026;-65
2023/07/23 09:06:42;;;;;;;0.10;0.10;;;;;;;19.04;81.12;99456.13;7354094;19;20055;-65
2023/07/23 09:09:09;;;;;;;0.10;0.10;;;;;;;19.15;81.07;99487.88;7350951;19;20473;-64
2023/07/23 09:11:36;;;;;;;0.13;0.13;;;;;;;19.16;81.38;99486.94;7354645;19;20018;-65
2023/07/23 09:14:12;;;;;;;0.10;0.10;;;;;;;19.21;81.43;99484.78;7350350;19;20449;-65
2023/07/23 09:16:40;;;;;;;0.10;0.10;;;;;;;19.14;81.24;99494.16;7351336;19;20462;-65
2023/07/23 09:19:07;;;;;;;;;;;;;;;19.24;81.43;99495.13;7354274;19;20462;-64
2023/07/23 09:21:34;;;;;;;;;;;;;;;19.27;80.66;99504.63;7352315;19;19926;-65
2023/07/23 13:18:36;;;;;;;0.10;0.10;;;;;;;17.76;100.00;99768.44;7386805;19;20679;-64
2023/07/23 13:21:02;;;;;;;0.10;0.10;;;;;;;18.13;98.37;99771.22;7385386;19;20036;-63
2023/07/23 13:23:28;;;;;;;0.10;0.10;;;;;;;18.46;94.92;99783.06;7388713;19;20493;-64
2023/07/23 13:25:53;;;;;;;0.10;0.10;;;;;;;18.70;92.15;99783.97;7358469;19;20014;-63
2023/07/23 13:28:19;;;;;;;0.10;0.10;;;;;;;18.89;90.19;99784.38;7388755;19;20026;-64
2023/07/23 13:30:44;;;;;;;0.10;0.10;;;;;;;18.92;89.11;99770.94;7387650;19;20006;-63
2023/07/23 13:33:10;;;;;;;0.10;0.10;;;;;;;19.14;88.09;99790.53;7390440;19;20025;-64
2023/07/23 13:35:35;;;;;;;0.10;0.10;;;;;;;19.19;87.52;99776.00;7384373;19;20010;-63
2023/07/23 13:38:01;;;;;;;0.10;0.10;;;;;;;19.24;86.49;99786.25;7387139;19;20101;-64
2023/07/23 13:40:26;;;;;;;0.05;0.05;;;;;;;19.24;86.29;99786.25;7388267;19;20013;-63
2023/07/23 13:42:51;;;;;;;0.10;0.10;;;;;;;19.28;86.26;99787.75;7386712;19;20014;-63
2023/07/23 13:45:17;;;;;;;0.10;0.10;;;;;;;19.31;85.57;99791.94;7388919;19;20006;-63
2023/07/23 13:47:42;;;;;;;0.10;0.10;;;;;;;19.33;85.67;99790.03;7388368;19;20386;-63
2023/07/23 13:50:08;;;;;;;0.05;0.05;;;;;;;19.26;85.35;99787.00;7388965;19;20053;-63
2023/07/23 13:52:34;;;;;;;0.10;0.10;;;;;;;19.33;85.42;99798.84;7390531;19;20010;-63
2023/07/23 13:55:00;;;;;;;0.05;0.05;;;;;;;19.34;84.84;99797.88;7389359;19;20018;-63
2023/07/23 13:57:26;;;;;;;0.20;0.20;;;;;;;19.34;84.73;99803.16;7387801;19;20039;-63
2023/07/23 13:59:52;;;;;;;0.10;0.10;;;;;;;19.34;84.75;99802.31;7386320;19;20018;-63
2023/07/23 14:02:17;;;;;;;0.10;0.10;;;;;;;19.33;84.89;99798.84;7388689;19;20623;-64
2023/07/23 14:04:43;;;;;;;0.10;0.10;;;;;;;19.31;84.95;99803.41;7388052;19;20010;-63
2023/07/23 14:07:08;;;;;;;0.10;0.10;;;;;;;19.31;84.46;99803.41;7388870;19;20018;-63
2023/07/23 14:09:34;;;;;;;0.10;0.10;;;;;;;19.29;84.76;99815.06;7387938;19;20014;-64
2023/07/23 14:11:59;;;;;;;0.05;0.05;;;;;;;19.28;84.79;99814.22;7388398;19;20014;-63
2023/07/23 14:14:25;;;;;;;0.10;0.10;;;;;;;19.26;84.49;99808.19;7389902;19;20017;-63
2023/07/23 14:16:50;;;;;;;0.10;0.10;;;;;;;19.25;84.59;99818.88;7382461;19;20110;-63
2023/07/23 14:19:16;;;;;;;0.08;0.08;;;;;;;19.25;84.39;99818.88;7359861;19;20018;-61
2023/07/23 14:21:41;;;;;;;0.00;0.00;;;;;;;19.24;84.65;99823.31;7363682;19;20027;-63
2023/07/23 14:24:06;;;;;;;0.10;0.10;;;;;;;19.24;84.28;99823.31;7358964;19;20010;-63
2023/07/23 14:26:32;;;;;;;0.10;0.10;;;;;;;19.21;84.47;99828.84;7357812;19;20018;-63
2023/07/23 14:28:57;;;;;;;0.10;0.10;;;;;;;19.10;84.30;99812.88;7358838;19;20077;-61
2023/07/23 14:31:23;;;;;;;0.08;0.08;;;;;;;19.22;84.66;99824.41;7354373;19;20002;-63
2023/07/23 14:33:48;;;;;;;0.10;0.10;;;;;;;19.19;84.38;99820.16;7359832;19;20019;-62
2023/07/23 14:36:13;;;;;;;0.10;0.10;;;;;;;19.23;84.23;99826.94;7355495;19;20007;-63
2023/07/23 14:38:39;;;;;;;0.10;0.10;;;;;;;19.25;84.32;99826.81;7361143;19;20359;-64
2023/07/23 14:41:04;;;;;;;0.10;0.10;;;;;;;19.27;84.18;99828.41;7352867;19;20338;-62
2023/07/23 14:43:30;;;;;;;0.10;0.10;;;;;;;19.30;84.25;99832.63;7361136;19;20493;-62
2023/07/23 14:45:56;;;;;;;0.10;0.10;;;;;;;19.31;84.20;99835.19;7358706;19;20474;-63
2023/07/23 14:48:21;;;;;;;0.10;0.10;;;;;;;19.26;84.62;99818.78;7358046;19;20007;-63
2023/07/23 14:50:47;;;;;;;0.10;0.10;;;;;;;19.41;84.45;99840.63;7355861;19;20009;-64
2023/07/23 14:53:12;;;;;;;0.10;0.10;;;;;;;19.43;84.65;99822.84;7359304;19;20010;-62
2023/07/23 14:55:38;;;;;;;0.00;0.00;;;;;;;19.51;84.21;99830.19;7357506;19;20006;-63
2023/07/23 14:58:04;;;;;;;0.10;0.10;;;;;;;19.56;83.90;99828.06;7359303;19;20018;-63
2023/07/23 15:00:29;;;;;;;0.10;0.10;;;;;;;19.60;83.97;99830.41;7356191;19;20066;-63
2023/07/23 15:02:55;;;;;;;0.10;0.10;;;;;;;19.68;83.79;99837.78;7360020;19;20034;-60
2023/07/23 15:05:20;;;;;;;0.10;0.10;;;;;;;19.73;83.23;99843.59;7357064;19;20070;-64
2023/07/23 15:07:46;;;;;;;0.10;0.10;;;;;;;19.70;83.25;99830.56;7356888;19;20921;-63
2023/07/23 15:10:11;;;;;;;0.10;0.10;;;;;;;19.81;82.61;99849.16;7358067;19;20057;-63
2023/07/23 15:12:37;;;;;;;0.10;0.10;;;;;;;19.84;82.58;99848.94;7355560;19;20452;-62
2023/07/23 15:15:03;;;;;;;0.00;0.00;;;;;;;19.85;82.67;99849.78;7350189;19;20409;-63
2023/07/23 15:17:28;;;;;;;0.10;0.10;;;;;;;19.72;82.75;99833.97;7352979;19;20010;-64
2023/07/23 15:19:54;;;;;;;0.10;0.10;;;;;;;19.85;82.13;99852.41;7354320;19;20017;-63
2023/07/23 15:22:25;;;;;;;0.03;0.03;;;;;;;19.91;82.20;99858.09;7356486;19;20016;-61